createdAt,value
2019-01-19T00:08:46.537Z,45.43
2019-01-19T00:19:13.571Z,46.15
2019-01-19T00:29:23.467Z,44.65
2019-01-19T00:39:30.664Z,46.28
2019-01-19T00:49:35.704Z,53.00
2019-01-19T00:59:41.134Z,53.13
2019-01-19T01:09:57.280Z,48.92
2019-01-19T01:20:16.132Z,51.55
2019-01-19T01:30:41.314Z,52.35
2019-01-19T01:41:09.678Z,57.58
2019-01-19T01:51:31.960Z,51.40
2019-01-19T02:01:41.887Z,56.00
2019-01-19T02:12:10.861Z,55.90
2019-01-19T02:22:32.975Z,58.45
2019-01-19T02:32:45.904Z,47.33
2019-01-19T02:43:11.208Z,50.43
2019-01-19T02:53:19.639Z,50.17
2019-01-19T03:03:42.202Z,46.48
2019-01-19T03:14:13.365Z,47.25
2019-01-19T03:24:26.250Z,46.55
2019-01-19T03:34:59.455Z,44.60
2019-01-19T03:45:14.991Z,37.00
2019-01-19T03:55:24.704Z,47.00
2019-01-19T04:05:37.826Z,36.65
2019-01-19T04:15:54.044Z,36.53
2019-01-19T04:26:00.770Z,34.05
2019-01-19T04:36:04.729Z,38.48
2019-01-19T04:46:08.764Z,39.35
2019-01-19T04:56:12.793Z,39.18
2019-01-19T05:06:17.009Z,39.03
2019-01-19T05:16:20.975Z,44.98
2019-01-19T05:26:24.935Z,48.87
2019-01-19T05:36:28.992Z,52.48
2019-01-19T05:46:33.017Z,51.70
2019-01-19T05:56:37.119Z,47.50
2019-01-19T06:06:46.566Z,47.35
2019-01-19T06:16:46.730Z,39.92
2019-01-19T06:26:50.694Z,39.45
2019-01-19T06:36:55.255Z,41.75
2019-01-19T06:46:59.428Z,57.83
2019-01-19T06:57:03.509Z,47.98
2019-01-19T07:07:07.523Z,53.20
2019-01-19T07:17:11.536Z,53.28
2019-01-19T07:27:15.777Z,48.35
2019-01-19T07:37:19.708Z,74.12
2019-01-19T07:57:31.270Z,52.53
2019-01-19T08:07:32.887Z,64.40
2019-01-19T08:17:36.814Z,69.80
2019-01-19T08:37:44.075Z,95.65
2019-01-19T08:47:48.003Z,83.62
2019-01-19T09:07:55.174Z,55.03
2019-01-19T09:28:02.347Z,41.73
2019-01-19T09:48:09.484Z,35.73
2019-01-19T10:08:16.599Z,43.90
2019-01-19T10:28:23.783Z,70.92
2019-01-19T10:38:27.800Z,38.30
2019-01-19T10:58:35.111Z,23.92
2019-01-19T11:18:42.344Z,29.45
2019-01-19T11:28:46.364Z,33.95
2019-01-19T11:38:50.488Z,37.50
2019-01-19T11:48:54.478Z,48.13
2019-01-19T12:09:01.739Z,39.48
2019-01-19T12:19:07.167Z,34.65
2019-01-19T12:39:14.263Z,27.45
2019-01-19T12:59:21.394Z,32.40
2019-01-19T13:19:34.598Z,37.95
2019-01-19T13:29:56.817Z,34.18
2019-01-19T13:40:09.716Z,31.30
2019-01-19T13:50:43.893Z,36.25
2019-01-19T14:11:17.132Z,123.02
2019-01-19T14:21:26.915Z,80.17
2019-01-19T14:31:52.100Z,108.25
2019-01-19T14:42:05.275Z,132.80
2019-01-19T14:52:27.166Z,106.43
2019-01-19T15:02:46.416Z,132.55
2019-01-19T15:13:02.753Z,84.97
2019-01-19T15:23:24.868Z,204.43
2019-01-19T15:34:00.512Z,139.97
2019-01-19T15:44:15.908Z,133.22
2019-01-19T15:54:31.927Z,178.18
2019-01-19T16:04:47.365Z,127.17
2019-01-19T16:15:09.493Z,136.68
2019-01-19T16:25:34.545Z,95.22
2019-01-19T16:35:53.749Z,118.57
2019-01-19T16:46:15.830Z,112.08
2019-01-19T16:56:25.779Z,78.10
2019-01-19T17:06:44.996Z,75.78
2019-01-19T17:16:55.347Z,80.90
2019-01-19T17:27:17.337Z,71.37
2019-01-19T17:37:27.256Z,77.97
2019-01-19T17:47:49.645Z,84.70
2019-01-19T17:58:12.957Z,147.30
2019-01-19T18:08:32.137Z,177.40
2019-01-19T18:18:48.127Z,145.47
2019-01-19T18:29:04.397Z,130.72
2019-01-19T18:39:11.679Z,114.30
2019-01-19T18:49:21.700Z,107.27
2019-01-19T18:59:28.915Z,206.90
2019-01-19T19:09:38.822Z,415.75
2019-01-19T19:19:58.323Z,193.17
2019-01-19T19:30:14.339Z,179.42
2019-01-19T19:40:21.678Z,332.25
2019-01-19T19:50:43.980Z,315.57
2019-01-19T20:00:48.303Z,313.57
2019-01-19T20:10:52.270Z,315.68
2019-01-19T20:20:56.232Z,259.98
2019-01-19T20:31:00.222Z,346.32
2019-01-19T20:41:04.336Z,316.48
2019-01-19T20:51:08.442Z,241.30
2019-01-19T21:01:13.395Z,174.02
2019-01-19T21:11:17.480Z,372.05
2019-01-19T21:21:21.544Z,200.07
2019-01-19T21:31:25.782Z,187.70
2019-01-19T21:41:29.674Z,172.70
2019-01-19T21:51:33.727Z,165.95
2019-01-19T22:01:38.148Z,158.95
2019-01-19T22:11:42.272Z,168.15
2019-01-19T22:21:46.250Z,174.97
2019-01-19T22:31:50.292Z,184.07
2019-01-19T22:41:54.243Z,479.53
2019-01-19T22:51:58.190Z,223.97
2019-01-19T23:02:02.530Z,339.50
2019-01-19T23:12:06.553Z,305.92
2019-01-19T23:22:10.612Z,294.67
2019-01-19T23:32:14.568Z,325.18
2019-01-19T23:42:18.514Z,266.63
2019-01-19T23:52:22.519Z,260.85
